Time;durP1;ratioP1;P1;durP2;ratioP2;P2;SDS_P1;SDS_P2;PMS_P1;PMS_P2;Temp;Humidity;BMP_temperature;BMP_pressure;BME280_temperature;BME280_humidity;BME280_pressure;Samples;Min_cycle;Max_cycle;Signal;HPM_P1;HPM_P2
2023/01/28 00:00:56;;;;;;;61.30;33.70;;;;;;;-0.46;97.20;100861.70;130907;1295;22685;-80
2023/01/28 00:03:57;;;;;;;57.30;29.80;;;;;;;-0.43;97.09;100865.27;129996;1292;22687;-82
2023/01/28 00:06:57;;;;;;;60.30;30.70;;;;;;;-0.44;96.97;100865.66;130123;1291;22740;-79
2023/01/28 00:09:58;;;;;;;62.20;29.20;;;;;;;-0.45;96.83;100864.30;130295;1292;24421;-80
2023/01/28 00:12:58;;;;;;;64.20;26.70;;;;;;;-0.47;97.00;100869.09;130509;1292;22565;-82
2023/01/28 00:16:03;;;;;;;48.20;24.00;;;;;;;-0.51;96.80;100867.89;130542;1290;23466;-79
2023/01/28 00:19:04;;;;;;;51.00;25.20;;;;;;;-0.53;96.77;100865.05;130818;1292;23089;-81
2023/01/28 00:22:04;;;;;;;45.10;24.30;;;;;;;-0.54;96.82;100864.91;130898;1292;24246;-82
2023/01/28 00:25:05;;;;;;;47.60;24.20;;;;;;;-0.56;96.97;100865.23;131075;1291;23044;-80
2023/01/28 00:28:06;;;;;;;45.90;22.80;;;;;;;-0.59;97.17;100860.16;130680;1299;23167;-79
2023/01/28 00:31:15;;;;;;;46.60;25.10;;;;;;;-0.62;97.24;100862.56;130680;1298;22651;-82
2023/01/28 00:34:16;;;;;;;52.60;25.60;;;;;;;-0.64;97.51;100863.01;130169;1297;24311;-79
2023/01/28 00:37:17;;;;;;;50.90;26.40;;;;;;;-0.65;97.47;100861.50;130531;1292;24816;-82
2023/01/28 00:40:20;;;;;;;50.50;25.20;;;;;;;-0.67;97.53;100859.66;130460;1298;24088;-83
2023/01/28 00:43:21;;;;;;;53.80;26.90;;;;;;;-0.67;97.70;100857.78;130709;1292;24215;-82
2023/01/28 00:46:22;;;;;;;50.00;25.50;;;;;;;-0.67;97.88;100859.48;130696;1295;22559;-80
2023/01/28 00:49:23;;;;;;;53.70;27.10;;;;;;;-0.67;98.00;100862.27;130502;1295;25609;-78
2023/01/28 00:52:24;;;;;;;53.60;28.80;;;;;;;-0.68;97.99;100857.63;130481;1296;22652;-81
2023/01/28 00:55:25;;;;;;;58.10;28.00;;;;;;;-0.69;98.53;100854.36;130359;1298;22563;-80
2023/01/28 00:58:26;;;;;;;66.00;32.00;;;;;;;-0.72;98.64;100855.04;130351;1295;25186;-81
2023/01/28 01:01:28;;;;;;;76.60;35.70;;;;;;;-0.74;98.91;100850.61;130367;1292;22609;-80
2023/01/28 01:04:34;;;;;;;64.50;31.80;;;;;;;-0.75;98.95;100850.33;130451;1295;25505;-79
2023/01/28 01:07:42;;;;;;;72.20;33.80;;;;;;;-0.76;99.10;100853.52;130422;1293;22573;-79
2023/01/28 01:10:43;;;;;;;65.70;31.80;;;;;;;-0.78;99.04;100856.91;130287;1298;22567;-80
2023/01/28 01:13:44;;;;;;;65.00;33.10;;;;;;;-0.79;99.15;100863.05;130409;1298;23371;-81
2023/01/28 01:16:45;;;;;;;64.50;31.80;;;;;;;-0.79;99.14;100869.66;130468;1292;22574;-79
2023/01/28 01:19:46;;;;;;;60.00;30.30;;;;;;;-0.81;99.12;100871.64;130878;1295;25319;-81
2023/01/28 01:22:46;;;;;;;59.60;29.60;;;;;;;-0.80;98.99;100876.28;130327;1299;22555;-80
2023/01/28 01:25:47;;;;;;;50.90;27.00;;;;;;;-0.79;99.04;100868.61;130336;1292;22588;-80
2023/01/28 01:28:50;;;;;;;61.70;29.80;;;;;;;-0.78;98.96;100870.80;130354;1298;25593;-80
2023/01/28 01:31:50;;;;;;;49.50;26.30;;;;;;;-0.78;98.90;100874.98;130165;1298;22751;-79
2023/01/28 01:34:51;;;;;;;48.70;25.80;;;;;;;-0.77;98.75;100880.14;130450;1295;22660;-80
2023/01/28 01:37:52;;;;;;;48.20;26.50;;;;;;;-0.76;98.88;100877.84;130210;1297;22607;-81
2023/01/28 01:40:59;;;;;;;49.30;26.60;;;;;;;-0.75;98.46;100876.23;130496;1297;22575;-81
2023/01/28 01:44:04;;;;;;;42.20;22.20;;;;;;;-0.74;98.07;100885.91;130530;1289;22566;-78
2023/01/28 01:47:05;;;;;;;46.40;24.20;;;;;;;-0.74;98.11;100889.19;130243;1295;23319;-81
2023/01/28 01:50:15;;;;;;;41.90;22.70;;;;;;;-0.74;98.10;100892.33;130347;1292;23037;-82
2023/01/28 01:53:19;;;;;;;50.40;25.90;;;;;;;-0.74;97.99;100894.78;130413;1295;22604;-79
2023/01/28 01:56:25;;;;;;;48.30;27.30;;;;;;;-0.74;97.97;100898.61;130221;1295;25522;-81
2023/01/28 01:59:32;;;;;;;44.50;25.60;;;;;;;-0.75;98.23;100898.28;130284;1292;22692;-80
2023/01/28 02:02:40;;;;;;;48.50;25.90;;;;;;;-0.77;98.52;100893.34;130448;1295;25365;-80
2023/01/28 02:05:41;;;;;;;45.00;26.20;;;;;;;-0.79;98.62;100894.33;130246;1293;22577;-81
2023/01/28 02:08:44;;;;;;;43.00;25.70;;;;;;;-0.80;98.56;100898.89;130434;1295;22559;-78
2023/01/28 02:11:44;;;;;;;44.70;25.80;;;;;;;-0.82;98.71;100899.52;130456;1295;22581;-82
2023/01/28 02:14:51;;;;;;;48.40;26.60;;;;;;;-0.87;98.59;100900.61;130356;1295;24253;-80
2023/01/28 02:17:52;;;;;;;46.90;25.80;;;;;;;-0.88;98.65;100906.56;130382;1298;22609;-82
2023/01/28 02:21:24;;;;;;;43.80;27.70;;;;;;;-0.91;98.92;100908.77;130269;1292;22619;-81
2023/01/28 02:24:52;;;;;;;49.50;26.70;;;;;;;-0.93;99.01;100907.31;130475;1294;25444;-82
2023/01/28 02:28:12;;;;;;;44.00;26.80;;;;;;;-0.95;99.29;100903.06;130448;1292;22549;-80
2023/01/28 02:31:31;;;;;;;47.30;26.50;;;;;;;-0.95;99.11;100906.35;130477;1292;25522;-81
2023/01/28 02:35:03;;;;;;;45.50;25.10;;;;;;;-0.96;99.03;100905.19;130445;1295;22618;-80
2023/01/28 02:38:14;;;;;;;46.40;26.70;;;;;;;-0.97;99.21;100908.02;130419;1292;22575;-80
2023/01/28 02:41:28;;;;;;;37.70;22.60;;;;;;;-0.97;99.24;100908.53;130401;1295;22567;-80
2023/01/28 02:44:28;;;;;;;36.90;23.30;;;;;;;-0.97;99.29;100907.01;130213;1291;22556;-81
2023/01/28 02:51:26;;;;;;;41.50;25.90;;;;;;;-1.00;99.37;100911.13;130283;1298;22742;-80
2023/01/28 02:54:45;;;;;;;38.70;22.80;;;;;;;-1.01;99.53;100906.16;130265;1298;22565;-80
2023/01/28 02:57:46;;;;;;;34.00;21.70;;;;;;;-1.04;99.52;100908.02;130379;1292;22640;-79
2023/01/28 03:01:14;;;;;;;39.10;26.00;;;;;;;-1.06;99.48;100906.41;130459;1294;22678;-79
2023/01/28 03:04:15;;;;;;;40.60;24.80;;;;;;;-1.09;99.63;100912.25;130245;1295;22558;-80
2023/01/28 03:07:17;;;;;;;61.90;24.60;;;;;;;-1.11;99.79;100902.98;130422;1298;22579;-80
2023/01/28 03:10:22;;;;;;;35.70;22.00;;;;;;;-1.10;99.79;100907.30;130449;1292;24991;-81
2023/01/28 03:37:27;;;;;;;40.50;22.80;;;;;;;-1.19;100.00;100912.73;130286;1292;23897;-82
2023/01/28 03:40:51;;;;;;;44.30;23.40;;;;;;;-1.20;100.00;100912.63;130488;1298;22619;-83
2023/01/28 03:43:54;;;;;;;39.30;22.60;;;;;;;-1.18;100.00;100908.54;130457;1298;22793;-81
2023/01/28 03:46:55;;;;;;;38.10;21.80;;;;;;;-1.18;99.99;100908.67;130159;1299;22574;-81
2023/01/28 03:50:00;;;;;;;36.20;22.90;;;;;;;-1.18;100.00;100914.41;130219;1298;24180;-78
2023/01/28 03:53:11;;;;;;;37.60;22.90;;;;;;;-1.16;99.98;100917.27;130411;1295;22937;-79
2023/01/28 03:56:23;;;;;;;37.20;22.90;;;;;;;-1.16;100.00;100915.88;130518;1292;22744;-81
2023/01/28 03:59:23;;;;;;;31.20;20.40;;;;;;;-1.18;100.00;100921.85;130188;1298;25385;-80
2023/01/28 04:02:27;;;;;;;30.30;20.00;;;;;;;-1.18;100.00;100922.95;130553;1295;22593;-80
2023/01/28 04:05:28;;;;;;;32.00;21.20;;;;;;;-1.19;100.00;100923.33;130247;1292;22612;-83
2023/01/28 04:08:31;;;;;;;33.90;20.20;;;;;;;-1.20;100.00;100920.79;130467;1298;22778;-81
2023/01/28 04:11:51;;;;;;;31.80;21.90;;;;;;;-1.20;100.00;100925.61;130344;1292;22560;-80
2023/01/28 04:14:59;;;;;;;27.90;18.80;;;;;;;-1.19;99.98;100927.66;130430;1292;22566;-81
2023/01/28 04:18:01;;;;;;;33.30;20.00;;;;;;;-1.20;100.00;100927.04;130426;1295;22800;-82
2023/01/28 04:21:04;;;;;;;33.90;21.50;;;;;;;-1.21;100.00;100928.46;130146;1295;22764;-80
2023/01/28 04:24:07;;;;;;;34.40;22.50;;;;;;;-1.21;100.00;100931.73;130435;1299;22782;-80
2023/01/28 04:27:08;;;;;;;38.40;22.90;;;;;;;-1.22;100.00;100934.04;130503;1298;22620;-79
2023/01/28 04:30:09;;;;;;;36.10;21.80;;;;;;;-1.20;100.00;100930.48;130442;1298;26841;-81
2023/01/28 04:33:16;;;;;;;39.30;23.80;;;;;;;-1.19;100.00;100936.32;130472;1292;22662;-78
2023/01/28 04:36:36;;;;;;;50.30;26.90;;;;;;;-1.18;100.00;100935.60;130213;1299;22653;-80
2023/01/28 04:40:00;;;;;;;44.20;26.40;;;;;;;-1.21;100.00;100939.38;130020;1298;22657;-83
2023/01/28 04:43:30;;;;;;;46.20;27.20;;;;;;;-1.23;100.00;100943.67;130443;1295;24358;-79
2023/01/28 04:46:50;;;;;;;45.10;25.10;;;;;;;-1.22;100.00;100942.23;130026;1299;24398;-80
2023/01/28 04:50:20;;;;;;;44.30;25.50;;;;;;;-1.21;99.99;100945.64;129555;1295;24142;-80
2023/01/28 04:53:50;;;;;;;46.00;26.30;;;;;;;-1.22;99.99;100944.28;130226;1301;26547;-80
2023/01/28 04:56:59;;;;;;;47.30;27.20;;;;;;;-1.22;99.96;100948.63;130271;1301;22570;-80
2023/01/28 05:00:00;;;;;;;51.30;28.40;;;;;;;-1.23;100.00;100953.05;130302;1299;23025;-80
2023/01/28 05:03:01;;;;;;;49.40;29.60;;;;;;;-1.23;99.96;100957.02;130421;1298;25373;-80
2023/01/28 05:06:03;;;;;;;49.70;26.90;;;;;;;-1.23;100.00;100957.23;130255;1298;24237;-81
2023/01/28 05:09:13;;;;;;;50.80;28.40;;;;;;;-1.23;100.00;100958.94;130380;1298;24259;-79
2023/01/28 05:12:14;;;;;;;48.70;26.90;;;;;;;-1.23;99.99;100958.58;130258;1295;22797;-83
2023/01/28 05:15:17;;;;;;;51.80;29.60;;;;;;;-1.20;100.00;100961.92;130498;1295;22793;-81
2023/01/28 05:18:19;;;;;;;48.00;28.00;;;;;;;-1.19;100.00;100958.05;130278;1296;25348;-81
2023/01/28 05:21:29;;;;;;;53.50;27.10;;;;;;;-1.19;99.98;100959.98;130655;1295;22563;-81
2023/01/28 05:24:35;;;;;;;48.60;27.90;;;;;;;-1.19;100.00;100960.83;130167;1299;22573;-81
2023/01/28 05:27:37;;;;;;;49.50;27.00;;;;;;;-1.17;100.00;100967.52;130417;1295;22792;-83
2023/01/28 05:30:38;;;;;;;49.30;28.80;;;;;;;-1.17;100.00;100972.15;130434;1298;108192;-83
2023/01/28 05:33:38;;;;;;;45.90;26.50;;;;;;;-1.17;100.00;100976.70;130353;1292;25522;-79
2023/01/28 05:36:42;;;;;;;51.60;29.30;;;;;;;-1.18;99.89;100978.48;130272;1294;24498;-82
2023/01/28 05:39:58;;;;;;;53.10;28.90;;;;;;;-1.18;100.00;100983.36;130397;1299;22670;-80
2023/01/28 05:42:59;;;;;;;54.50;29.50;;;;;;;-1.20;99.99;100987.80;130585;1298;22578;-81
2023/01/28 05:46:28;;;;;;;50.00;29.10;;;;;;;-1.23;99.98;100983.94;130219;1291;22565;-83
2023/01/28 05:49:49;;;;;;;51.40;28.10;;;;;;;-1.26;99.93;100987.70;130500;1299;22586;-81
2023/01/28 05:53:08;;;;;;;47.80;26.90;;;;;;;-1.26;100.00;100993.46;130482;1298;24238;-82
2023/01/28 05:56:10;;;;;;;51.40;28.50;;;;;;;-1.27;100.00;100986.01;130623;1298;23151;-81
2023/01/28 05:59:12;;;;;;;45.20;25.20;;;;;;;-1.29;99.84;100984.04;130343;1297;25294;-78
2023/01/28 06:02:16;;;;;;;81.70;30.80;;;;;;;-1.30;99.91;100981.99;130460;1283;22687;-82
2023/01/28 06:05:17;;;;;;;56.40;30.70;;;;;;;-1.29;99.92;100987.88;130232;1298;22677;-81
2023/01/28 06:08:18;;;;;;;;;;;;;;;-1.30;100.00;100985.46;130326;1295;22548;-82
2023/01/28 06:11:18;;;;;;;60.00;30.70;;;;;;;-1.31;99.90;100988.46;130298;1296;25394;-82
2023/01/28 06:14:19;;;;;;;53.90;29.80;;;;;;;-1.34;99.84;100991.89;130194;1292;25316;-82
2023/01/28 06:17:41;;;;;;;55.90;30.40;;;;;;;-1.33;99.90;100997.41;130501;1298;22545;-82
2023/01/28 06:20:54;;;;;;;53.50;30.90;;;;;;;-1.34;99.90;100998.88;130496;1298;22664;-83
2023/01/28 06:23:55;;;;;;;51.80;29.70;;;;;;;-1.36;99.86;101002.55;130520;1298;22562;-81
2023/01/28 06:26:55;;;;;;;55.50;31.20;;;;;;;-1.36;99.82;101004.27;130465;1299;22995;-80
2023/01/28 06:29:56;;;;;;;52.50;29.90;;;;;;;-1.36;99.88;101006.89;130259;1301;22566;-83
2023/01/28 06:32:57;;;;;;;57.10;31.40;;;;;;;-1.36;99.85;101011.05;130426;1295;22572;-82
2023/01/28 06:35:57;;;;;;;57.80;32.30;;;;;;;-1.35;99.96;101015.89;130412;1295;22589;-81
2023/01/28 06:38:58;;;;;;;58.20;31.60;;;;;;;-1.37;99.86;101021.02;130408;1298;22565;-82
2023/01/28 06:41:59;;;;;;;53.30;30.00;;;;;;;-1.41;99.80;101020.64;130429;1292;24364;-81
2023/01/28 06:45:01;;;;;;;50.30;27.90;;;;;;;-1.42;99.77;101020.71;130253;1292;22558;-81
2023/01/28 06:48:02;;;;;;;;;;;;;;;-1.43;99.79;101024.76;130105;1292;22659;-84
2023/01/28 06:51:04;;;;;;;53.90;29.90;;;;;;;-1.43;99.82;101027.01;130386;1296;22592;-83
2023/01/28 06:54:05;;;;;;;58.80;32.10;;;;;;;-1.44;99.77;101032.25;130593;1298;23529;-83
2023/01/28 06:57:05;;;;;;;56.40;31.70;;;;;;;-1.42;99.82;101032.88;129841;1291;22612;-81
2023/01/28 07:00:09;;;;;;;55.30;31.30;;;;;;;-1.42;99.68;101033.17;130471;1298;23459;-82
2023/01/28 07:03:10;;;;;;;48.70;30.20;;;;;;;-1.41;99.84;101032.47;130377;1298;22655;-79
2023/01/28 07:06:10;;;;;;;57.30;33.50;;;;;;;-1.39;99.88;101040.17;130402;1298;25857;-81
2023/01/28 07:09:11;;;;;;;54.20;32.30;;;;;;;-1.40;99.63;101045.61;130458;1298;22587;-83
2023/01/28 07:12:13;;;;;;;59.70;35.10;;;;;;;-1.38;99.72;101049.53;130401;1298;22856;-81
2023/01/28 07:15:15;;;;;;;60.90;33.40;;;;;;;-1.38;99.81;101056.98;130180;1292;24457;-81
2023/01/28 07:18:16;;;;;;;;;;;;;;;-1.37;99.80;101060.95;130363;1295;25251;-80
2023/01/28 07:21:16;;;;;;;54.80;31.40;;;;;;;-1.37;99.73;101064.94;130543;1298;25326;-79
2023/01/28 07:24:20;;;;;;;57.20;31.90;;;;;;;-1.38;99.80;101067.55;130491;1295;25268;-81
2023/01/28 07:27:20;;;;;;;58.00;32.70;;;;;;;-1.38;99.77;101067.58;130530;1292;25488;-80
2023/01/28 07:30:22;;;;;;;50.90;30.30;;;;;;;-1.36;99.79;101069.75;130567;1295;22662;-82
2023/01/28 07:33:23;;;;;;;55.20;32.30;;;;;;;-1.37;99.78;101070.29;130267;1298;24265;-80
2023/01/28 07:36:24;;;;;;;50.10;29.20;;;;;;;-1.37;99.73;101071.70;130319;1298;22572;-82
2023/01/28 07:39:25;;;;;;;52.40;30.30;;;;;;;-1.41;99.53;101073.77;130342;1298;25485;-80
2023/01/28 07:42:26;;;;;;;56.00;32.50;;;;;;;-1.45;99.36;101070.45;130159;1292;22569;-80
2023/01/28 07:45:29;;;;;;;54.40;31.90;;;;;;;-1.47;99.38;101067.09;130408;1295;22570;-80
2023/01/28 07:48:30;;;;;;;58.30;34.00;;;;;;;-1.47;99.48;101068.32;130555;1298;22618;-81
2023/01/28 07:51:30;;;;;;;88.10;50.30;;;;;;;-1.47;99.43;101066.57;130576;1297;22615;-81
2023/01/28 07:54:31;;;;;;;69.10;39.90;;;;;;;-1.47;99.36;101069.70;130401;1298;22560;-83
2023/01/28 07:57:31;;;;;;;62.10;37.20;;;;;;;-1.46;99.33;101066.54;130407;1298;22570;-79
2023/01/28 08:00:34;;;;;;;52.80;30.90;;;;;;;-1.45;99.32;101067.02;130396;1298;22629;-80
2023/01/28 08:03:36;;;;;;;53.60;30.40;;;;;;;-1.45;99.13;101071.85;130548;1295;22777;-79
2023/01/28 08:06:37;;;;;;;51.20;29.50;;;;;;;-1.44;99.12;101075.96;130441;1298;25355;-80
2023/01/28 08:09:37;;;;;;;49.10;29.00;;;;;;;-1.42;99.07;101075.54;130259;1293;22869;-80
2023/01/28 08:12:38;;;;;;;59.20;37.00;;;;;;;-1.39;99.16;101077.34;130615;1299;22565;-81
2023/01/28 08:15:42;;;;;;;53.70;31.90;;;;;;;-1.38;99.12;101078.17;130757;1295;24407;-80
2023/01/28 08:18:42;;;;;;;55.90;33.40;;;;;;;-1.38;99.09;101078.84;131162;1298;25396;-78
2023/01/28 08:21:46;;;;;;;50.30;32.20;;;;;;;-1.38;98.89;101082.66;130680;1286;22664;-79
2023/01/28 08:24:46;;;;;;;54.50;31.80;;;;;;;-1.37;98.88;101082.80;130950;1292;22574;-81
2023/01/28 08:27:47;;;;;;;50.70;31.20;;;;;;;-1.36;98.98;101089.55;130450;1295;24071;-81
2023/01/28 08:30:47;;;;;;;53.60;31.70;;;;;;;-1.38;98.83;101092.38;130476;1295;22688;-78
2023/01/28 08:33:48;;;;;;;59.70;32.90;;;;;;;-1.38;98.73;101092.58;130198;1293;24515;-79
2023/01/28 08:36:48;;;;;;;51.60;31.10;;;;;;;-1.37;98.82;101091.11;130510;1291;24485;-81
2023/01/28 08:39:49;;;;;;;53.80;31.40;;;;;;;-1.36;98.73;101088.83;130480;1298;22602;-79
2023/01/28 08:42:51;;;;;;;51.90;30.80;;;;;;;-1.37;98.57;101090.45;130488;1292;22634;-79
2023/01/28 08:45:52;;;;;;;48.60;30.20;;;;;;;-1.32;98.74;101093.20;130480;1291;24387;-81
2023/01/28 08:48:52;;;;;;;48.10;30.40;;;;;;;-1.31;98.66;101093.14;130265;1297;22596;-78
2023/01/28 08:51:54;;;;;;;47.30;31.20;;;;;;;-1.34;98.33;101097.27;130171;1295;25456;-81
2023/01/28 08:54:54;;;;;;;47.30;29.10;;;;;;;-1.37;98.16;101094.27;130213;1289;22588;-80
2023/01/28 08:57:55;;;;;;;44.00;27.60;;;;;;;-1.40;97.98;101094.92;130438;1288;24419;-79
2023/01/28 09:00:56;;;;;;;48.60;29.00;;;;;;;-1.43;98.15;101096.75;130592;1294;23830;-79
2023/01/28 09:03:56;;;;;;;43.70;29.00;;;;;;;-1.43;98.08;101096.42;131434;1298;22584;-80
2023/01/28 09:06:57;;;;;;;49.80;28.50;;;;;;;-1.41;98.18;101093.19;130872;1293;22598;-80
2023/01/28 09:09:58;;;;;;;46.10;29.20;;;;;;;-1.38;98.09;101095.34;130684;1292;26577;-79
2023/01/28 09:13:03;;;;;;;47.20;28.70;;;;;;;-1.35;98.13;101095.56;130572;1292;24314;-82
2023/01/28 09:16:05;;;;;;;45.30;27.90;;;;;;;-1.32;98.14;101100.15;130550;1298;24178;-81
2023/01/28 09:19:05;;;;;;;46.00;27.80;;;;;;;-1.30;98.01;101098.32;130435;1292;22608;-81
2023/01/28 09:22:06;;;;;;;44.40;28.20;;;;;;;-1.31;97.81;101105.84;130509;1296;25482;-81
2023/01/28 09:25:07;;;;;;;43.20;28.80;;;;;;;-1.31;97.87;101110.52;130624;1298;24375;-80
2023/01/28 09:28:10;;;;;;;48.50;28.60;;;;;;;-1.32;97.87;101112.98;130629;1292;25360;-79
2023/01/28 09:31:11;;;;;;;43.50;28.00;;;;;;;-1.31;97.86;101109.11;130652;1292;22608;-82
2023/01/28 09:34:12;;;;;;;38.50;24.00;;;;;;;-1.32;97.78;101118.02;130561;1292;22668;-80
2023/01/28 09:37:13;;;;;;;39.60;25.80;;;;;;;-1.34;97.79;101119.83;130679;1293;23150;-81
2023/01/28 09:40:16;;;;;;;;;;;;;;;-1.38;97.60;101123.81;130565;1293;22586;-82
2023/01/28 09:43:35;;;;;;;48.70;28.20;;;;;;;-1.41;97.71;101127.06;130602;1292;24410;-79
2023/01/28 09:46:37;;;;;;;48.00;29.10;;;;;;;-1.43;97.63;101125.59;130446;1292;22921;-83
2023/01/28 09:49:49;;;;;;;44.30;29.30;;;;;;;-1.43;97.73;101127.52;130479;1295;22550;-80
2023/01/28 09:52:54;;;;;;;48.10;28.90;;;;;;;-1.43;97.46;101130.45;130415;1292;22586;-80
2023/01/28 09:56:00;;;;;;;49.00;28.60;;;;;;;-1.44;97.47;101127.88;130397;1293;22603;-82
2023/01/28 09:59:13;;;;;;;46.00;28.30;;;;;;;-1.46;97.44;101128.30;130282;1291;22588;-83
2023/01/28 10:02:36;;;;;;;44.80;29.00;;;;;;;-1.45;97.43;101123.59;130376;1292;22582;-83
2023/01/28 10:06:05;;;;;;;46.20;28.80;;;;;;;-1.45;97.28;101127.22;130326;1293;24305;-85
2023/01/28 10:09:17;;;;;;;47.70;28.60;;;;;;;-1.45;97.16;101127.23;130547;1293;22567;-83
2023/01/28 10:12:18;;;;;;;51.80;30.20;;;;;;;-1.45;96.91;101122.86;130554;1292;22614;-83
2023/01/28 10:15:34;;;;;;;57.90;32.00;;;;;;;-1.44;96.97;101121.28;130478;1298;22586;-81
2023/01/28 10:18:45;;;;;;;55.80;33.70;;;;;;;-1.42;96.98;101122.42;130524;1292;22552;-82
2023/01/28 10:21:51;;;;;;;52.90;31.80;;;;;;;-1.40;96.99;101121.27;130663;1294;22590;-83
2023/01/28 10:25:05;;;;;;;53.10;30.30;;;;;;;-1.34;97.15;101123.85;130310;1292;25380;-83
2023/01/28 10:28:22;;;;;;;49.70;30.40;;;;;;;-1.29;97.22;101121.35;130548;1292;22580;-82
2023/01/28 10:31:30;;;;;;;44.20;27.50;;;;;;;-1.25;96.99;101118.42;130608;1292;22562;-83
2023/01/28 10:34:31;;;;;;;44.40;26.50;;;;;;;-1.23;96.87;101119.71;130536;1292;24285;-84
2023/01/28 10:37:34;;;;;;;42.40;26.50;;;;;;;-1.25;96.63;101118.59;130537;1295;25361;-83
2023/01/28 10:40:35;;;;;;;45.30;26.40;;;;;;;-1.23;96.79;101122.14;130571;1295;23959;-81
2023/01/28 10:43:39;;;;;;;55.10;32.00;;;;;;;-1.23;96.63;101119.18;130408;1299;24359;-80
2023/01/28 10:46:44;;;;;;;51.30;30.60;;;;;;;-1.24;96.63;101119.92;130510;1292;22604;-82
2023/01/28 10:49:52;;;;;;;54.80;33.30;;;;;;;-1.24;96.66;101118.35;130736;1294;22558;-84
2023/01/28 10:53:01;;;;;;;55.30;33.80;;;;;;;-1.28;96.40;101120.79;130417;1294;22558;-79
2023/01/28 10:56:05;;;;;;;57.40;34.00;;;;;;;-1.34;96.51;101124.17;130383;1299;23244;-82
2023/01/28 10:59:27;;;;;;;60.80;36.40;;;;;;;-1.38;96.56;101123.48;130519;1292;22682;-84
2023/01/28 11:02:35;;;;;;;54.30;32.60;;;;;;;-1.39;96.73;101114.67;130852;1295;22590;-82
2023/01/28 11:05:36;;;;;;;56.80;35.30;;;;;;;-1.33;97.02;101122.05;130618;1298;25437;-81
2023/01/28 11:08:43;;;;;;;56.30;34.40;;;;;;;-1.30;97.13;101117.59;130503;1292;25370;-81
2023/01/28 11:11:43;;;;;;;56.30;34.50;;;;;;;-1.31;96.99;101124.21;130641;1292;22604;-85
2023/01/28 11:14:51;;;;;;;63.80;35.50;;;;;;;-1.33;96.93;101126.39;130511;1292;22548;-83
2023/01/28 11:18:06;;;;;;;59.90;35.80;;;;;;;-1.35;96.83;101128.73;130493;1295;22645;-81
2023/01/28 11:21:17;;;;;;;58.80;35.20;;;;;;;-1.37;96.86;101124.63;130645;1290;22681;-79
2023/01/28 11:24:25;;;;;;;55.50;31.50;;;;;;;-1.38;96.84;101119.64;130442;1295;24385;-82
2023/01/28 11:27:30;;;;;;;52.00;31.30;;;;;;;-1.37;96.66;101121.67;130471;1291;25278;-83
2023/01/28 11:30:40;;;;;;;49.70;29.80;;;;;;;-1.37;96.70;101123.05;130121;1292;23911;-80
2023/01/28 11:33:59;;;;;;;42.10;24.80;;;;;;;-1.37;96.48;101118.20;130292;1290;22562;-81
2023/01/28 11:37:15;;;;;;;43.20;27.20;;;;;;;-1.40;96.14;101112.25;130406;1292;22615;-83
2023/01/28 11:40:19;;;;;;;42.20;28.50;;;;;;;-1.41;95.95;101116.11;130540;1283;25491;-82
2023/01/28 11:43:23;;;;;;;46.40;28.50;;;;;;;-1.42;95.99;101119.45;130332;1292;22564;-83
2023/01/28 11:46:49;;;;;;;47.20;28.40;;;;;;;-1.40;95.61;101119.39;130566;1292;22963;-85
2023/01/28 11:50:06;;;;;;;43.10;28.10;;;;;;;-1.39;95.89;101118.29;130671;1292;23906;-83
2023/01/28 11:53:40;;;;;;;41.40;26.50;;;;;;;-1.36;95.77;101124.23;130802;1291;23437;-84
2023/01/28 11:56:48;;;;;;;40.50;26.60;;;;;;;-1.38;95.39;101121.88;130731;1289;23479;-82
2023/01/28 12:00:04;;;;;;;45.90;28.50;;;;;;;-1.38;95.27;101114.45;130564;1291;24901;-81
2023/01/28 12:03:34;;;;;;;42.30;27.90;;;;;;;-1.41;95.26;101120.47;130605;1298;23314;-82
2023/01/28 12:06:46;;;;;;;43.70;28.90;;;;;;;-1.41;95.30;101111.96;130402;1291;22991;-82
2023/01/28 12:09:54;;;;;;;44.70;29.10;;;;;;;-1.43;95.45;101116.54;130337;1291;23642;-83
2023/01/28 12:13:10;;;;;;;47.80;28.30;;;;;;;-1.44;95.54;101114.51;130532;1291;22690;-79
2023/01/28 12:16:11;;;;;;;41.60;27.70;;;;;;;-1.42;95.69;101111.83;130371;1292;22612;-80
2023/01/28 12:19:23;;;;;;;43.40;27.90;;;;;;;-1.44;95.61;101114.52;130525;1298;23312;-82
2023/01/28 12:22:45;;;;;;;46.00;30.10;;;;;;;-1.43;95.74;101114.50;130236;1304;22562;-81
2023/01/28 12:26:18;;;;;;;38.70;26.40;;;;;;;-1.39;95.80;101114.31;130322;1291;22567;-82
2023/01/28 12:29:46;;;;;;;41.10;27.60;;;;;;;-1.40;95.51;101110.90;130141;1299;22573;-82
2023/01/28 12:33:30;;;;;;;41.90;25.20;;;;;;;-1.44;95.66;101109.48;130363;1291;22699;-82
2023/01/28 12:37:03;;;;;;;35.10;24.30;;;;;;;-1.49;95.45;101111.96;130536;1295;26586;-81
2023/01/28 12:40:44;;;;;;;37.10;21.80;;;;;;;-1.55;95.28;101110.85;130402;1292;22961;-80
2023/01/28 12:43:55;;;;;;;33.80;21.20;;;;;;;-1.60;94.94;101109.82;130086;1294;22564;-82
2023/01/28 12:47:08;;;;;;;35.10;22.20;;;;;;;-1.64;94.75;101110.88;130524;1294;25342;-82
2023/01/28 12:50:27;;;;;;;35.40;22.00;;;;;;;-1.70;94.74;101113.01;130432;1292;22560;-79
2023/01/28 12:53:51;;;;;;;35.60;20.30;;;;;;;-1.73;94.66;101119.94;130427;1295;25447;-81
2023/01/28 12:56:55;;;;;;;27.20;18.90;;;;;;;-1.76;94.56;101119.18;130764;1281;22686;-81
2023/01/28 13:00:23;;;;;;;26.00;17.10;;;;;;;-1.78;94.48;101120.13;130653;1291;22646;-80
2023/01/28 13:03:44;;;;;;;25.40;17.90;;;;;;;-1.78;94.55;101122.71;130383;1292;22604;-83
2023/01/28 13:06:54;;;;;;;25.20;17.60;;;;;;;-1.78;94.52;101130.04;130432;1295;22791;-82
2023/01/28 13:10:05;;;;;;;26.00;17.40;;;;;;;-1.81;94.01;101131.52;130591;1295;22675;-81
2023/01/28 13:13:06;;;;;;;31.00;17.90;;;;;;;-1.84;93.62;101131.63;130434;1290;25414;-81
2023/01/28 13:16:09;;;;;;;23.40;16.80;;;;;;;-1.87;93.53;101132.80;130519;1294;23032;-82
2023/01/28 13:19:16;;;;;;;26.30;18.10;;;;;;;-1.88;93.72;101133.02;130621;1299;24110;-80
2023/01/28 13:22:32;;;;;;;21.40;14.40;;;;;;;-1.89;93.58;101127.69;130334;1292;22596;-80
2023/01/28 13:25:34;;;;;;;17.50;12.20;;;;;;;-1.91;93.15;101128.98;130439;1291;24241;-83
2023/01/28 13:28:34;;;;;;;;;;;;;;;-1.95;91.89;101128.08;130167;1297;22546;-80
2023/01/28 13:31:44;;;;;;;16.80;11.00;;;;;;;-1.99;91.67;101130.86;130169;1299;24406;-81
2023/01/28 13:34:57;;;;;;;13.10;10.00;;;;;;;-2.01;91.65;101127.81;130107;1301;24228;-81
2023/01/28 13:38:04;;;;;;;16.00;11.50;;;;;;;-2.01;91.68;101129.90;129951;1299;25339;-82
2023/01/28 13:41:05;;;;;;;15.40;10.80;;;;;;;-2.05;91.06;101134.90;130162;1296;25407;-82
2023/01/28 13:44:18;;;;;;;;;;;;;;;-2.07;90.95;101136.70;130232;1299;24083;-85
2023/01/28 13:47:24;;;;;;;17.40;11.60;;;;;;;-2.06;91.89;101137.20;130417;1297;22594;-83
2023/01/28 13:50:37;;;;;;;20.90;12.60;;;;;;;-2.05;91.90;101138.91;130575;1298;22563;-82
2023/01/28 13:53:51;;;;;;;20.40;11.80;;;;;;;-2.04;91.33;101137.98;130772;1298;25526;-83
2023/01/28 13:56:58;;;;;;;20.40;14.10;;;;;;;-2.06;91.38;101140.32;130216;1299;25370;-84
2023/01/28 14:00:30;;;;;;;22.60;13.70;;;;;;;-2.06;91.09;101146.73;130518;1297;22562;-83
2023/01/28 14:03:55;;;;;;;24.20;13.50;;;;;;;-2.06;91.19;101148.84;130443;1297;22679;-83
2023/01/28 14:07:18;;;;;;;22.60;14.00;;;;;;;-2.08;90.83;101154.29;130237;1283;22556;-81
2023/01/28 14:10:30;;;;;;;25.70;14.60;;;;;;;-2.10;90.36;101155.06;130364;1298;22559;-80
2023/01/28 14:14:03;;;;;;;27.10;16.80;;;;;;;-2.12;90.50;101151.82;130504;1298;24604;-77
2023/01/28 14:17:26;;;;;;;28.10;16.50;;;;;;;-2.13;90.30;101158.81;130161;1292;22559;-80
2023/01/28 14:20:40;;;;;;;24.30;15.20;;;;;;;-2.12;90.68;101164.67;130543;1295;22619;-81
2023/01/28 14:23:54;;;;;;;24.30;14.40;;;;;;;-2.11;91.05;101164.10;130608;1297;25284;-82
2023/01/28 14:27:21;;;;;;;23.10;14.50;;;;;;;-2.11;90.33;101164.98;130523;1291;24290;-84
2023/01/28 14:30:30;;;;;;;25.60;15.00;;;;;;;-2.11;90.81;101166.54;130407;1298;25911;-82